sensor_id;sensor_type;location;lat;lon;timestamp;P1;durP1;ratioP1;P2;durP2;ratioP2
14001;SDS011;7076;51.280;12.584;2023-02-28T00:01:02;2.30;;;1.70;;
14001;SDS011;7076;51.280;12.584;2023-02-28T00:06:07;2.13;;;1.40;;
14001;SDS011;7076;51.280;12.584;2023-02-28T00:11:11;2.77;;;1.23;;
14001;SDS011;7076;51.280;12.584;2023-02-28T00:16:15;1.57;;;1.40;;
14001;SDS011;7076;51.280;12.584;2023-02-28T00:21:21;1.97;;;1.20;;
14001;SDS011;7076;51.280;12.584;2023-02-28T00:26:24;1.43;;;1.13;;
14001;SDS011;7076;51.280;12.584;2023-02-28T00:31:26;2.50;;;1.30;;
14001;SDS011;7076;51.280;12.584;2023-02-28T00:36:31;2.27;;;1.27;;
14001;SDS011;7076;51.280;12.584;2023-02-28T00:41:34;1.20;;;1.03;;
14001;SDS011;7076;51.280;12.584;2023-02-28T00:46:37;2.30;;;1.30;;
14001;SDS011;7076;51.280;12.584;2023-02-28T00:51:41;3.03;;;1.43;;
14001;SDS011;7076;51.280;12.584;2023-02-28T00:56:44;1.70;;;1.30;;
14001;SDS011;7076;51.280;12.584;2023-02-28T01:01:47;1.73;;;1.30;;
14001;SDS011;7076;51.280;12.584;2023-02-28T01:06:51;2.90;;;1.60;;
14001;SDS011;7076;51.280;12.584;2023-02-28T01:11:54;2.00;;;1.10;;
14001;SDS011;7076;51.280;12.584;2023-02-28T01:16:58;3.43;;;1.43;;
14001;SDS011;7076;51.280;12.584;2023-02-28T01:22:02;2.13;;;1.50;;
14001;SDS011;7076;51.280;12.584;2023-02-28T01:27:05;3.77;;;1.27;;
14001;SDS011;7076;51.280;12.584;2023-02-28T01:32:11;3.87;;;1.40;;
14001;SDS011;7076;51.280;12.584;2023-02-28T01:37:15;4.23;;;1.40;;
14001;SDS011;7076;51.280;12.584;2023-02-28T01:42:18;2.50;;;1.53;;
14001;SDS011;7076;51.280;12.584;2023-02-28T01:47:21;2.33;;;1.40;;
14001;SDS011;7076;51.280;12.584;2023-02-28T01:52:26;3.70;;;1.83;;
14001;SDS011;7076;51.280;12.584;2023-02-28T01:57:30;4.20;;;1.97;;
14001;SDS011;7076;51.280;12.584;2023-02-28T02:02:40;2.77;;;1.60;;
14001;SDS011;7076;51.280;12.584;2023-02-28T02:07:46;2.77;;;1.70;;
14001;SDS011;7076;51.280;12.584;2023-02-28T02:18:14;3.37;;;1.63;;
14001;SDS011;7076;51.280;12.584;2023-02-28T02:23:41;3.03;;;1.47;;
14001;SDS011;7076;51.280;12.584;2023-02-28T02:34:41;2.50;;;1.47;;
14001;SDS011;7076;51.280;12.584;2023-02-28T02:39:48;4.03;;;1.80;;
14001;SDS011;7076;51.280;12.584;2023-02-28T02:44:55;2.07;;;1.50;;
14001;SDS011;7076;51.280;12.584;2023-02-28T02:50:04;3.97;;;1.67;;
14001;SDS011;7076;51.280;12.584;2023-02-28T02:55:09;2.43;;;1.60;;
14001;SDS011;7076;51.280;12.584;2023-02-28T03:00:14;3.27;;;1.73;;
14001;SDS011;7076;51.280;12.584;2023-02-28T03:05:23;4.97;;;1.93;;
14001;SDS011;7076;51.280;12.584;2023-02-28T03:10:30;3.07;;;2.20;;
14001;SDS011;7076;51.280;12.584;2023-02-28T03:15:36;3.23;;;1.90;;
14001;SDS011;7076;51.280;12.584;2023-02-28T03:20:47;4.03;;;1.80;;
14001;SDS011;7076;51.280;12.584;2023-02-28T03:25:56;3.77;;;1.60;;
14001;SDS011;7076;51.280;12.584;2023-02-28T03:31:03;2.43;;;1.60;;
14001;SDS011;7076;51.280;12.584;2023-02-28T03:36:12;2.03;;;1.70;;
14001;SDS011;7076;51.280;12.584;2023-02-28T03:41:17;2.47;;;1.70;;
14001;SDS011;7076;51.280;12.584;2023-02-28T03:46:23;4.00;;;1.90;;
14001;SDS011;7076;51.280;12.584;2023-02-28T03:51:30;2.30;;;1.53;;
14001;SDS011;7076;51.280;12.584;2023-02-28T03:56:34;2.87;;;1.70;;
14001;SDS011;7076;51.280;12.584;2023-02-28T04:01:40;3.20;;;2.00;;
14001;SDS011;7076;51.280;12.584;2023-02-28T04:06:45;5.10;;;2.43;;
14001;SDS011;7076;51.280;12.584;2023-02-28T04:11:52;3.13;;;1.70;;
14001;SDS011;7076;51.280;12.584;2023-02-28T04:16:56;4.00;;;2.47;;
14001;SDS011;7076;51.280;12.584;2023-02-28T04:22:01;3.87;;;2.30;;
14001;SDS011;7076;51.280;12.584;2023-02-28T04:27:03;3.63;;;1.73;;
14001;SDS011;7076;51.280;12.584;2023-02-28T04:32:06;2.00;;;1.67;;
14001;SDS011;7076;51.280;12.584;2023-02-28T04:37:10;2.33;;;1.90;;
14001;SDS011;7076;51.280;12.584;2023-02-28T04:42:14;4.53;;;1.90;;
14001;SDS011;7076;51.280;12.584;2023-02-28T04:47:17;3.30;;;1.93;;
14001;SDS011;7076;51.280;12.584;2023-02-28T04:52:21;7.40;;;2.10;;
14001;SDS011;7076;51.280;12.584;2023-02-28T04:57:24;4.80;;;1.83;;
14001;SDS011;7076;51.280;12.584;2023-02-28T05:02:27;3.37;;;1.90;;
14001;SDS011;7076;51.280;12.584;2023-02-28T05:07:31;4.57;;;2.10;;
14001;SDS011;7076;51.280;12.584;2023-02-28T05:12:34;3.33;;;2.00;;
14001;SDS011;7076;51.280;12.584;2023-02-28T05:17:37;2.60;;;2.00;;
14001;SDS011;7076;51.280;12.584;2023-02-28T05:22:41;2.70;;;2.00;;
14001;SDS011;7076;51.280;12.584;2023-02-28T05:27:44;2.90;;;1.93;;
14001;SDS011;7076;51.280;12.584;2023-02-28T05:32:49;2.67;;;1.97;;
14001;SDS011;7076;51.280;12.584;2023-02-28T05:37:54;5.17;;;2.20;;
14001;SDS011;7076;51.280;12.584;2023-02-28T05:42:57;4.40;;;1.90;;
14001;SDS011;7076;51.280;12.584;2023-02-28T05:48:00;3.70;;;2.30;;
14001;SDS011;7076;51.280;12.584;2023-02-28T05:53:04;3.80;;;2.43;;
14001;SDS011;7076;51.280;12.584;2023-02-28T05:58:07;5.93;;;2.70;;
14001;SDS011;7076;51.280;12.584;2023-02-28T06:03:09;6.63;;;2.83;;
14001;SDS011;7076;51.280;12.584;2023-02-28T06:08:14;4.13;;;2.70;;
14001;SDS011;7076;51.280;12.584;2023-02-28T06:13:16;3.07;;;2.10;;
14001;SDS011;7076;51.280;12.584;2023-02-28T06:18:20;3.93;;;2.40;;
14001;SDS011;7076;51.280;12.584;2023-02-28T06:23:24;3.13;;;2.07;;
14001;SDS011;7076;51.280;12.584;2023-02-28T06:28:27;3.50;;;2.17;;
14001;SDS011;7076;51.280;12.584;2023-02-28T06:33:30;2.83;;;2.30;;
14001;SDS011;7076;51.280;12.584;2023-02-28T06:38:34;3.87;;;2.40;;
14001;SDS011;7076;51.280;12.584;2023-02-28T06:43:38;3.40;;;1.97;;
14001;SDS011;7076;51.280;12.584;2023-02-28T06:48:42;2.93;;;2.23;;
14001;SDS011;7076;51.280;12.584;2023-02-28T06:53:47;2.90;;;2.13;;
14001;SDS011;7076;51.280;12.584;2023-02-28T06:58:50;5.10;;;2.80;;
14001;SDS011;7076;51.280;12.584;2023-02-28T07:03:54;4.53;;;2.70;;
14001;SDS011;7076;51.280;12.584;2023-02-28T07:08:58;7.33;;;3.43;;
14001;SDS011;7076;51.280;12.584;2023-02-28T07:14:01;4.57;;;2.67;;
14001;SDS011;7076;51.280;12.584;2023-02-28T07:19:04;4.73;;;2.60;;
14001;SDS011;7076;51.280;12.584;2023-02-28T07:24:08;4.67;;;2.70;;
14001;SDS011;7076;51.280;12.584;2023-02-28T07:29:11;5.33;;;2.80;;
14001;SDS011;7076;51.280;12.584;2023-02-28T07:34:14;5.93;;;3.33;;
14001;SDS011;7076;51.280;12.584;2023-02-28T07:39:18;5.07;;;3.00;;
14001;SDS011;7076;51.280;12.584;2023-02-28T07:44:21;5.87;;;3.20;;
14001;SDS011;7076;51.280;12.584;2023-02-28T07:49:24;5.20;;;3.13;;
14001;SDS011;7076;51.280;12.584;2023-02-28T07:54:28;5.70;;;3.30;;
14001;SDS011;7076;51.280;12.584;2023-02-28T07:59:31;5.10;;;2.97;;
14001;SDS011;7076;51.280;12.584;2023-02-28T08:04:34;4.80;;;3.13;;
14001;SDS011;7076;51.280;12.584;2023-02-28T08:09:38;8.67;;;3.27;;
14001;SDS011;7076;51.280;12.584;2023-02-28T08:14:41;6.07;;;3.37;;
14001;SDS011;7076;51.280;12.584;2023-02-28T08:19:44;5.53;;;3.03;;
14001;SDS011;7076;51.280;12.584;2023-02-28T08:24:49;5.57;;;3.10;;
14001;SDS011;7076;51.280;12.584;2023-02-28T08:29:51;5.77;;;2.97;;
14001;SDS011;7076;51.280;12.584;2023-02-28T08:34:54;6.30;;;3.33;;
14001;SDS011;7076;51.280;12.584;2023-02-28T08:39:58;4.07;;;2.90;;
14001;SDS011;7076;51.280;12.584;2023-02-28T08:45:01;4.53;;;2.57;;
14001;SDS011;7076;51.280;12.584;2023-02-28T08:50:05;4.33;;;3.27;;
14001;SDS011;7076;51.280;12.584;2023-02-28T08:55:09;6.60;;;3.33;;
14001;SDS011;7076;51.280;12.584;2023-02-28T09:00:12;6.33;;;2.90;;
14001;SDS011;7076;51.280;12.584;2023-02-28T09:05:16;4.30;;;3.00;;
14001;SDS011;7076;51.280;12.584;2023-02-28T09:10:20;3.70;;;2.87;;
14001;SDS011;7076;51.280;12.584;2023-02-28T09:15:22;6.00;;;3.17;;
14001;SDS011;7076;51.280;12.584;2023-02-28T09:20:25;3.30;;;2.67;;
14001;SDS011;7076;51.280;12.584;2023-02-28T09:25:29;5.17;;;2.90;;
14001;SDS011;7076;51.280;12.584;2023-02-28T09:30:32;4.07;;;2.60;;
14001;SDS011;7076;51.280;12.584;2023-02-28T09:35:35;3.77;;;3.23;;
14001;SDS011;7076;51.280;12.584;2023-02-28T09:40:42;4.07;;;2.60;;
14001;SDS011;7076;51.280;12.584;2023-02-28T09:45:51;4.10;;;2.73;;
14001;SDS011;7076;51.280;12.584;2023-02-28T09:51:00;4.20;;;2.93;;
14001;SDS011;7076;51.280;12.584;2023-02-28T09:56:07;5.03;;;2.70;;
14001;SDS011;7076;51.280;12.584;2023-02-28T10:01:12;3.13;;;2.37;;
14001;SDS011;7076;51.280;12.584;2023-02-28T10:06:22;3.13;;;2.40;;
14001;SDS011;7076;51.280;12.584;2023-02-28T10:11:30;4.73;;;2.70;;
14001;SDS011;7076;51.280;12.584;2023-02-28T10:16:35;3.20;;;2.03;;
14001;SDS011;7076;51.280;12.584;2023-02-28T10:21:42;4.43;;;2.30;;
14001;SDS011;7076;51.280;12.584;2023-02-28T10:26:48;4.00;;;2.63;;
14001;SDS011;7076;51.280;12.584;2023-02-28T10:31:55;4.47;;;2.50;;
14001;SDS011;7076;51.280;12.584;2023-02-28T10:36:58;3.57;;;2.27;;
14001;SDS011;7076;51.280;12.584;2023-02-28T10:42:20;4.30;;;2.87;;
14001;SDS011;7076;51.280;12.584;2023-02-28T10:47:27;4.70;;;2.87;;
14001;SDS011;7076;51.280;12.584;2023-02-28T10:52:33;3.80;;;2.80;;
14001;SDS011;7076;51.280;12.584;2023-02-28T10:57:40;4.13;;;2.93;;
14001;SDS011;7076;51.280;12.584;2023-02-28T11:02:42;4.23;;;3.07;;
14001;SDS011;7076;51.280;12.584;2023-02-28T11:07:50;3.70;;;2.80;;
14001;SDS011;7076;51.280;12.584;2023-02-28T11:12:55;4.77;;;2.87;;
14001;SDS011;7076;51.280;12.584;2023-02-28T11:18:14;5.57;;;3.23;;
14001;SDS011;7076;51.280;12.584;2023-02-28T11:23:23;5.87;;;3.43;;
14001;SDS011;7076;51.280;12.584;2023-02-28T11:28:31;5.60;;;3.67;;
14001;SDS011;7076;51.280;12.584;2023-02-28T11:33:40;5.77;;;3.57;;
14001;SDS011;7076;51.280;12.584;2023-02-28T11:38:43;6.60;;;3.87;;
14001;SDS011;7076;51.280;12.584;2023-02-28T11:43:53;6.00;;;3.60;;
14001;SDS011;7076;51.280;12.584;2023-02-28T11:49:26;6.07;;;4.03;;
14001;SDS011;7076;51.280;12.584;2023-02-28T11:54:37;8.38;;;4.20;;
14001;SDS011;7076;51.280;12.584;2023-02-28T11:59:51;8.65;;;4.60;;
14001;SDS011;7076;51.280;12.584;2023-02-28T12:05:02;6.72;;;4.60;;
14001;SDS011;7076;51.280;12.584;2023-02-28T12:10:16;6.10;;;4.40;;
14001;SDS011;7076;51.280;12.584;2023-02-28T12:15:30;6.75;;;4.40;;
14001;SDS011;7076;51.280;12.584;2023-02-28T12:20:40;6.47;;;4.80;;
14001;SDS011;7076;51.280;12.584;2023-02-28T12:25:51;4.82;;;4.07;;
14001;SDS011;7076;51.280;12.584;2023-02-28T12:31:03;6.45;;;4.55;;
14001;SDS011;7076;51.280;12.584;2023-02-28T12:36:09;6.18;;;4.88;;
14001;SDS011;7076;51.280;12.584;2023-02-28T12:41:14;6.43;;;4.50;;
14001;SDS011;7076;51.280;12.584;2023-02-28T12:46:21;6.22;;;4.80;;
14001;SDS011;7076;51.280;12.584;2023-02-28T12:51:26;8.05;;;6.32;;
14001;SDS011;7076;51.280;12.584;2023-02-28T12:56:33;5.55;;;4.53;;
14001;SDS011;7076;51.280;12.584;2023-02-28T13:02:00;9.38;;;6.28;;
14001;SDS011;7076;51.280;12.584;2023-02-28T13:07:19;7.18;;;5.22;;
14001;SDS011;7076;51.280;12.584;2023-02-28T13:12:35;5.88;;;5.28;;
14001;SDS011;7076;51.280;12.584;2023-02-28T13:17:39;5.00;;;4.30;;
14001;SDS011;7076;51.280;12.584;2023-02-28T13:22:44;7.45;;;5.30;;
14001;SDS011;7076;51.280;12.584;2023-02-28T13:27:47;5.28;;;4.35;;
14001;SDS011;7076;51.280;12.584;2023-02-28T13:38:34;7.57;;;4.85;;
14001;SDS011;7076;51.280;12.584;2023-02-28T13:54:32;7.25;;;4.90;;
14001;SDS011;7076;51.280;12.584;2023-02-28T13:59:44;7.78;;;5.78;;
14001;SDS011;7076;51.280;12.584;2023-02-28T14:04:57;9.43;;;5.50;;
14001;SDS011;7076;51.280;12.584;2023-02-28T14:10:03;8.95;;;5.90;;
14001;SDS011;7076;51.280;12.584;2023-02-28T14:20:32;7.18;;;5.13;;
14001;SDS011;7076;51.280;12.584;2023-02-28T14:25:36;6.20;;;4.60;;
14001;SDS011;7076;51.280;12.584;2023-02-28T14:30:53;6.93;;;4.90;;
14001;SDS011;7076;51.280;12.584;2023-02-28T14:36:03;8.90;;;5.25;;
14001;SDS011;7076;51.280;12.584;2023-02-28T14:41:15;8.00;;;4.97;;
14001;SDS011;7076;51.280;12.584;2023-02-28T14:46:22;7.65;;;5.03;;
14001;SDS011;7076;51.280;12.584;2023-02-28T14:51:27;5.70;;;5.07;;
14001;SDS011;7076;51.280;12.584;2023-02-28T14:56:33;6.43;;;4.70;;
14001;SDS011;7076;51.280;12.584;2023-02-28T15:01:38;6.82;;;5.03;;
14001;SDS011;7076;51.280;12.584;2023-02-28T15:06:42;7.00;;;5.20;;
14001;SDS011;7076;51.280;12.584;2023-02-28T15:11:45;7.93;;;5.60;;
14001;SDS011;7076;51.280;12.584;2023-02-28T15:16:51;7.22;;;5.65;;
14001;SDS011;7076;51.280;12.584;2023-02-28T15:21:57;9.77;;;6.80;;
14001;SDS011;7076;51.280;12.584;2023-02-28T15:46:27;5.13;;;3.67;;
14001;SDS011;7076;51.280;12.584;2023-02-28T15:51:31;4.90;;;3.42;;
14001;SDS011;7076;51.280;12.584;2023-02-28T15:56:38;6.82;;;4.57;;
14001;SDS011;7076;51.280;12.584;2023-02-28T16:01:46;5.53;;;3.90;;
14001;SDS011;7076;51.280;12.584;2023-02-28T16:07:00;5.35;;;4.18;;
14001;SDS011;7076;51.280;12.584;2023-02-28T16:12:03;6.10;;;3.80;;
14001;SDS011;7076;51.280;12.584;2023-02-28T16:17:13;5.57;;;3.85;;
14001;SDS011;7076;51.280;12.584;2023-02-28T16:22:19;5.80;;;3.80;;
14001;SDS011;7076;51.280;12.584;2023-02-28T16:27:32;4.47;;;3.75;;
14001;SDS011;7076;51.280;12.584;2023-02-28T16:32:40;5.75;;;3.78;;
14001;SDS011;7076;51.280;12.584;2023-02-28T16:37:43;5.78;;;3.70;;
14001;SDS011;7076;51.280;12.584;2023-02-28T16:42:46;7.05;;;4.38;;
14001;SDS011;7076;51.280;12.584;2023-02-28T16:47:51;5.95;;;4.32;;
14001;SDS011;7076;51.280;12.584;2023-02-28T16:52:54;7.90;;;3.85;;
14001;SDS011;7076;51.280;12.584;2023-02-28T16:57:58;5.93;;;3.90;;
14001;SDS011;7076;51.280;12.584;2023-02-28T17:03:03;7.57;;;3.70;;
14001;SDS011;7076;51.280;12.584;2023-02-28T17:08:08;8.55;;;5.18;;
14001;SDS011;7076;51.280;12.584;2023-02-28T17:13:11;5.78;;;4.20;;
14001;SDS011;7076;51.280;12.584;2023-02-28T17:18:17;6.57;;;4.47;;
14001;SDS011;7076;51.280;12.584;2023-02-28T17:23:21;4.75;;;3.47;;
14001;SDS011;7076;51.280;12.584;2023-02-28T17:28:24;7.05;;;4.85;;
14001;SDS011;7076;51.280;12.584;2023-02-28T17:33:28;9.05;;;6.50;;
14001;SDS011;7076;51.280;12.584;2023-02-28T17:38:31;15.30;;;9.82;;
14001;SDS011;7076;51.280;12.584;2023-02-28T17:43:33;8.77;;;6.43;;
14001;SDS011;7076;51.280;12.584;2023-02-28T17:48:38;10.88;;;5.65;;
14001;SDS011;7076;51.280;12.584;2023-02-28T17:53:40;7.82;;;5.07;;
14001;SDS011;7076;51.280;12.584;2023-02-28T17:58:43;10.00;;;7.03;;
14001;SDS011;7076;51.280;12.584;2023-02-28T18:03:47;9.33;;;5.37;;
14001;SDS011;7076;51.280;12.584;2023-02-28T18:08:50;8.67;;;5.20;;
14001;SDS011;7076;51.280;12.584;2023-02-28T18:13:53;10.27;;;6.27;;
14001;SDS011;7076;51.280;12.584;2023-02-28T18:18:58;11.83;;;7.90;;
14001;SDS011;7076;51.280;12.584;2023-02-28T18:24:03;9.03;;;6.00;;
14001;SDS011;7076;51.280;12.584;2023-02-28T18:29:06;8.67;;;5.33;;
14001;SDS011;7076;51.280;12.584;2023-02-28T18:34:11;9.73;;;5.90;;
14001;SDS011;7076;51.280;12.584;2023-02-28T18:39:15;6.83;;;5.10;;
14001;SDS011;7076;51.280;12.584;2023-02-28T18:44:18;7.20;;;5.07;;
14001;SDS011;7076;51.280;12.584;2023-02-28T18:49:23;11.80;;;7.63;;
14001;SDS011;7076;51.280;12.584;2023-02-28T18:54:25;9.03;;;6.00;;
14001;SDS011;7076;51.280;12.584;2023-02-28T18:59:28;13.87;;;9.17;;
14001;SDS011;7076;51.280;12.584;2023-02-28T19:04:33;11.83;;;7.00;;
14001;SDS011;7076;51.280;12.584;2023-02-28T19:09:35;5.73;;;4.90;;
14001;SDS011;7076;51.280;12.584;2023-02-28T19:14:38;9.33;;;6.03;;
14001;SDS011;7076;51.280;12.584;2023-02-28T19:19:42;19.43;;;7.30;;
14001;SDS011;7076;51.280;12.584;2023-02-28T19:24:45;30.57;;;11.30;;
14001;SDS011;7076;51.280;12.584;2023-02-28T19:29:48;27.37;;;11.30;;
14001;SDS011;7076;51.280;12.584;2023-02-28T19:34:53;16.03;;;6.97;;
14001;SDS011;7076;51.280;12.584;2023-02-28T19:39:56;27.63;;;11.53;;
14001;SDS011;7076;51.280;12.584;2023-02-28T19:44:59;10.80;;;6.60;;
14001;SDS011;7076;51.280;12.584;2023-02-28T19:50:03;15.43;;;6.70;;
14001;SDS011;7076;51.280;12.584;2023-02-28T19:55:07;8.53;;;5.80;;
14001;SDS011;7076;51.280;12.584;2023-02-28T20:00:12;9.53;;;5.63;;
14001;SDS011;7076;51.280;12.584;2023-02-28T20:05:18;9.67;;;6.60;;
14001;SDS011;7076;51.280;12.584;2023-02-28T20:10:20;11.07;;;5.90;;
14001;SDS011;7076;51.280;12.584;2023-02-28T20:15:23;15.43;;;7.90;;
14001;SDS011;7076;51.280;12.584;2023-02-28T20:20:27;14.03;;;7.10;;
14001;SDS011;7076;51.280;12.584;2023-02-28T20:25:30;13.00;;;8.50;;
14001;SDS011;7076;51.280;12.584;2023-02-28T20:30:33;11.93;;;5.80;;
14001;SDS011;7076;51.280;12.584;2023-02-28T20:35:37;8.33;;;5.10;;
14001;SDS011;7076;51.280;12.584;2023-02-28T20:40:40;8.40;;;5.37;;
14001;SDS011;7076;51.280;12.584;2023-02-28T20:45:49;11.87;;;5.67;;
14001;SDS011;7076;51.280;12.584;2023-02-28T20:50:54;7.40;;;4.00;;
14001;SDS011;7076;51.280;12.584;2023-02-28T20:55:59;9.67;;;5.23;;
14001;SDS011;7076;51.280;12.584;2023-02-28T21:01:04;11.47;;;6.17;;
14001;SDS011;7076;51.280;12.584;2023-02-28T21:06:18;5.73;;;3.67;;
14001;SDS011;7076;51.280;12.584;2023-02-28T21:11:23;7.40;;;4.70;;
14001;SDS011;7076;51.280;12.584;2023-02-28T21:16:27;7.47;;;4.37;;
14001;SDS011;7076;51.280;12.584;2023-02-28T21:21:32;7.93;;;4.43;;
14001;SDS011;7076;51.280;12.584;2023-02-28T21:26:39;8.57;;;4.77;;
14001;SDS011;7076;51.280;12.584;2023-02-28T21:31:42;7.63;;;4.30;;
14001;SDS011;7076;51.280;12.584;2023-02-28T21:36:48;8.57;;;5.87;;
14001;SDS011;7076;51.280;12.584;2023-02-28T21:41:51;9.20;;;5.67;;
14001;SDS011;7076;51.280;12.584;2023-02-28T21:46:54;7.67;;;4.43;;
14001;SDS011;7076;51.280;12.584;2023-02-28T21:51:59;9.97;;;5.57;;
14001;SDS011;7076;51.280;12.584;2023-02-28T21:57:02;7.07;;;3.60;;
14001;SDS011;7076;51.280;12.584;2023-02-28T22:02:07;7.80;;;4.77;;
14001;SDS011;7076;51.280;12.584;2023-02-28T22:07:12;9.47;;;5.07;;
14001;SDS011;7076;51.280;12.584;2023-02-28T22:12:15;10.60;;;6.20;;
14001;SDS011;7076;51.280;12.584;2023-02-28T22:17:17;9.03;;;4.43;;
14001;SDS011;7076;51.280;12.584;2023-02-28T22:22:21;7.73;;;4.90;;
14001;SDS011;7076;51.280;12.584;2023-02-28T22:27:26;8.17;;;4.93;;
14001;SDS011;7076;51.280;12.584;2023-02-28T22:32:28;6.40;;;4.13;;
14001;SDS011;7076;51.280;12.584;2023-02-28T22:37:33;11.40;;;6.27;;
14001;SDS011;7076;51.280;12.584;2023-02-28T22:42:35;7.23;;;4.93;;
14001;SDS011;7076;51.280;12.584;2023-02-28T22:47:38;9.13;;;5.77;;
14001;SDS011;7076;51.280;12.584;2023-02-28T22:52:42;8.93;;;5.73;;
14001;SDS011;7076;51.280;12.584;2023-02-28T22:57:45;10.60;;;6.47;;
14001;SDS011;7076;51.280;12.584;2023-02-28T23:02:48;7.83;;;4.90;;
14001;SDS011;7076;51.280;12.584;2023-02-28T23:07:52;13.13;;;7.73;;
14001;SDS011;7076;51.280;12.584;2023-02-28T23:12:55;10.50;;;5.93;;
14001;SDS011;7076;51.280;12.584;2023-02-28T23:17:58;7.70;;;5.63;;
14001;SDS011;7076;51.280;12.584;2023-02-28T23:23:02;6.97;;;4.67;;
14001;SDS011;7076;51.280;12.584;2023-02-28T23:28:05;7.87;;;5.10;;
14001;SDS011;7076;51.280;12.584;2023-02-28T23:33:08;9.97;;;6.50;;
14001;SDS011;7076;51.280;12.584;2023-02-28T23:38:12;11.50;;;6.53;;
14001;SDS011;7076;51.280;12.584;2023-02-28T23:43:15;10.07;;;6.87;;
14001;SDS011;7076;51.280;12.584;2023-02-28T23:48:18;8.67;;;5.50;;
14001;SDS011;7076;51.280;12.584;2023-02-28T23:53:23;9.20;;;5.27;;
14001;SDS011;7076;51.280;12.584;2023-02-28T23:58:26;9.30;;;6.07;;
